Time;durP1;ratioP1;P1;durP2;ratioP2;P2;SDS_P1;SDS_P2;PMS_P1;PMS_P2;Temp;Humidity;BMP_temperature;BMP_pressure;BME280_temperature;BME280_humidity;BME280_pressure;Samples;Min_cycle;Max_cycle;Signal;HPM_P1;HPM_P2
2022/03/19 00:01:01;;;;;;;36.63;21.08;;;4.50;99.90;;;;;;4991740;28;20081;-72
2022/03/19 00:03:28;;;;;;;31.00;22.20;;;4.60;99.90;;;;;;4997201;28;20458;-70
2022/03/19 00:05:55;;;;;;;32.17;23.13;;;4.70;99.90;;;;;;4998411;28;20045;-71
2022/03/19 00:08:23;;;;;;;37.17;25.88;;;4.60;99.90;;;;;;5001612;28;20129;-71
2022/03/19 00:10:50;;;;;;;48.55;28.58;;;4.40;99.90;;;;;;5000285;28;20524;-70
2022/03/19 00:13:17;;;;;;;66.30;34.53;;;4.40;99.90;;;;;;4984424;28;20270;-70
2022/03/19 00:15:45;;;;;;;84.13;48.10;;;4.30;99.90;;;;;;4985645;28;20042;-70
2022/03/19 00:18:12;;;;;;;81.13;43.97;;;4.20;99.90;;;;;;4964436;28;20589;-71
2022/03/19 00:20:39;;;;;;;50.60;32.42;;;4.10;99.90;;;;;;4980811;28;20109;-71
2022/03/19 00:23:06;;;;;;;55.33;31.50;;;4.00;99.90;;;;;;5002774;28;20077;-68
2022/03/19 00:25:33;;;;;;;45.05;26.33;;;4.00;99.90;;;;;;4967403;28;20050;-70
2022/03/19 00:28:00;;;;;;;33.08;22.00;;;3.90;99.90;;;;;;4984200;28;20385;-70
2022/03/19 00:30:27;;;;;;;39.65;27.27;;;4.10;99.90;;;;;;4993952;28;20441;-71
2022/03/19 00:32:54;;;;;;;39.30;24.85;;;4.10;99.90;;;;;;4974745;28;20670;-70
2022/03/19 00:35:21;;;;;;;36.95;22.90;;;4.10;99.90;;;;;;4984930;28;20566;-71
2022/03/19 00:37:50;;;;;;;32.15;22.17;;;4.00;99.90;;;;;;4983583;28;20050;-69
2022/03/19 00:40:19;;;;;;;34.20;21.83;;;3.90;99.90;;;;;;4982527;28;20050;-71
2022/03/19 00:42:48;;;;;;;31.77;22.73;;;3.80;99.90;;;;;;4994368;28;20037;-72
2022/03/19 00:45:15;;;;;;;29.20;21.08;;;3.60;99.90;;;;;;4992387;28;20367;-71
2022/03/19 00:47:42;;;;;;;29.60;21.17;;;3.60;99.90;;;;;;4999519;28;20143;-71
2022/03/19 00:50:09;;;;;;;30.77;22.70;;;3.50;99.90;;;;;;4980593;28;20580;-71
2022/03/19 00:52:36;;;;;;;30.10;19.38;;;3.50;99.90;;;;;;4968592;28;20046;-71
2022/03/19 00:55:03;;;;;;;29.00;20.38;;;3.50;99.90;;;;;;5001102;28;20357;-72
2022/03/19 00:57:38;;;;;;;30.42;20.58;;;3.40;99.90;;;;;;5000796;28;20368;-71
2022/03/19 01:00:06;;;;;;;35.67;20.98;;;3.50;99.90;;;;;;4995299;28;20823;-71
2022/03/19 01:02:32;;;;;;;30.92;19.48;;;3.60;99.90;;;;;;4990601;28;20473;-70
2022/03/19 01:04:59;;;;;;;32.42;20.27;;;3.60;99.90;;;;;;5000160;28;20096;-71
2022/03/19 01:07:26;;;;;;;33.88;20.52;;;3.60;99.90;;;;;;4998923;28;20499;-70
2022/03/19 01:09:53;;;;;;;29.35;20.30;;;3.60;99.90;;;;;;4982804;28;20096;-70
2022/03/19 01:12:20;;;;;;;33.67;21.20;;;3.60;99.90;;;;;;4999886;28;20115;-70
2022/03/19 01:14:46;;;;;;;32.17;21.30;;;3.60;99.90;;;;;;4986426;28;20530;-72
2022/03/19 01:17:13;;;;;;;40.90;21.35;;;3.90;99.90;;;;;;4963330;28;20074;-70
2022/03/19 01:19:58;;;;;;;34.92;20.88;;;3.90;99.90;;;;;;4980554;28;20449;-70
2022/03/19 01:22:26;;;;;;;31.48;19.02;;;4.30;99.90;;;;;;4963037;28;20442;-71
2022/03/19 01:24:52;;;;;;;26.27;17.42;;;4.70;99.90;;;;;;4996647;28;20085;-72
2022/03/19 01:27:20;;;;;;;26.80;17.63;;;5.00;99.90;;;;;;4999344;28;20050;-71
2022/03/19 01:29:47;;;;;;;33.42;17.33;;;5.10;99.90;;;;;;4997527;28;20050;-71
2022/03/19 01:32:14;;;;;;;27.85;16.85;;;5.20;99.90;;;;;;4991052;28;20077;-70
2022/03/19 01:34:41;;;;;;;24.42;17.58;;;5.30;99.90;;;;;;4999328;28;20046;-71
2022/03/19 01:37:08;;;;;;;29.90;17.77;;;5.50;99.90;;;;;;4999757;28;20077;-70
2022/03/19 01:39:34;;;;;;;21.52;17.25;;;5.60;99.90;;;;;;5000099;28;20042;-71
2022/03/19 01:42:01;;;;;;;32.13;17.27;;;5.70;99.90;;;;;;4999494;28;20508;-71
2022/03/19 01:44:28;;;;;;;24.90;17.27;;;5.60;99.90;;;;;;4994678;28;20359;-71
2022/03/19 01:47:08;;;;;;;28.58;17.73;;;5.60;99.90;;;;;;4979749;28;20525;-71
2022/03/19 01:49:34;;;;;;;31.77;18.80;;;5.60;99.90;;;;;;4979402;28;20064;-71
2022/03/19 01:52:03;;;;;;;30.45;19.08;;;5.60;99.90;;;;;;4980996;28;20155;-70
2022/03/19 01:54:32;;;;;;;24.05;18.00;;;5.60;99.90;;;;;;4999991;28;20579;-70
2022/03/19 01:57:01;;;;;;;26.80;18.58;;;5.60;99.90;;;;;;4966187;28;20540;-71
2022/03/19 01:59:36;;;;;;;25.17;17.67;;;5.50;99.90;;;;;;4981249;28;20056;-70
2022/03/19 02:02:06;;;;;;;26.80;16.80;;;5.50;99.90;;;;;;4973542;28;20077;-70
2022/03/19 02:04:38;;;;;;;28.33;17.67;;;5.40;99.90;;;;;;4965277;28;20046;-70
2022/03/19 02:07:10;;;;;;;22.10;16.95;;;5.40;99.90;;;;;;4980856;28;20085;-70
2022/03/19 02:09:38;;;;;;;34.75;17.83;;;5.60;99.90;;;;;;4999075;28;20082;-71
2022/03/19 02:12:06;;;;;;;29.15;17.33;;;5.50;99.90;;;;;;4999612;28;20468;-71
2022/03/19 02:14:37;;;;;;;28.23;17.70;;;5.50;99.90;;;;;;4996945;28;20054;-71
2022/03/19 02:17:06;;;;;;;26.58;17.70;;;5.40;99.90;;;;;;4977849;28;20054;-71
2022/03/19 02:19:33;;;;;;;27.52;18.92;;;5.30;99.90;;;;;;4979880;28;20054;-70
2022/03/19 02:22:00;;;;;;;29.48;18.80;;;5.10;99.90;;;;;;4979088;28;20050;-71
2022/03/19 02:27:13;;;;;;;29.33;21.20;;;4.70;99.90;;;;;;4999650;28;20131;-71
2022/03/19 02:29:39;;;;;;;34.70;18.55;;;4.60;99.90;;;;;;4979704;28;21274;-71
2022/03/19 02:32:08;;;;;;;27.60;19.75;;;4.60;99.90;;;;;;4988088;28;20046;-70
2022/03/19 02:34:34;;;;;;;37.03;20.48;;;4.60;99.90;;;;;;4985515;28;20116;-70
2022/03/19 02:37:02;;;;;;;29.05;19.35;;;4.60;99.90;;;;;;4984366;28;20056;-70
2022/03/19 02:39:33;;;;;;;34.28;18.33;;;4.50;99.90;;;;;;4982060;28;20057;-70
2022/03/19 02:42:07;;;;;;;36.65;18.50;;;4.50;99.90;;;;;;4981447;28;20566;-71
2022/03/19 02:44:35;;;;;;;36.63;18.50;;;4.30;99.90;;;;;;4994030;28;20499;-71
2022/03/19 02:47:06;;;;;;;35.15;18.45;;;4.30;99.90;;;;;;5003391;28;20041;-71
2022/03/19 02:49:33;;;;;;;32.65;17.58;;;4.40;99.90;;;;;;4986077;28;20058;-70
2022/03/19 02:52:01;;;;;;;34.20;17.77;;;4.40;99.90;;;;;;4983147;28;20062;-71
2022/03/19 02:54:29;;;;;;;28.48;18.10;;;4.50;99.90;;;;;;4984530;28;20062;-71
2022/03/19 02:56:58;;;;;;;26.25;17.00;;;4.60;99.90;;;;;;5002159;28;20273;-72
2022/03/19 02:59:27;;;;;;;28.75;17.20;;;4.50;99.90;;;;;;4982911;28;20432;-70
2022/03/19 03:01:59;;;;;;;29.73;18.50;;;4.60;99.90;;;;;;4988023;28;20285;-69
2022/03/19 03:04:28;;;;;;;33.40;18.98;;;4.40;99.90;;;;;;5000217;28;20058;-72
2022/03/19 03:06:57;;;;;;;29.70;20.08;;;4.10;99.90;;;;;;5000477;28;20317;-71
2022/03/19 03:09:26;;;;;;;32.92;21.50;;;3.90;99.90;;;;;;5002491;28;20120;-71
2022/03/19 03:11:53;;;;;;;33.83;20.45;;;3.60;99.90;;;;;;5001473;28;20167;-70
2022/03/19 03:14:20;;;;;;;33.88;20.77;;;3.50;99.90;;;;;;4977220;28;20582;-69
2022/03/19 03:16:51;;;;;;;38.53;22.63;;;3.50;99.90;;;;;;4978811;28;20058;-71
2022/03/19 03:19:18;;;;;;;35.05;22.67;;;3.40;99.90;;;;;;5002182;28;20052;-69
2022/03/19 03:21:46;;;;;;;45.33;23.98;;;3.30;99.90;;;;;;5001826;28;20061;-71
2022/03/19 03:24:14;;;;;;;38.97;24.48;;;3.30;99.90;;;;;;4984428;28;20061;-70
2022/03/19 03:26:41;;;;;;;40.75;22.88;;;3.20;99.90;;;;;;5002195;28;20058;-70
2022/03/19 03:29:09;;;;;;;51.10;24.42;;;3.20;99.90;;;;;;5003362;28;20042;-71
2022/03/19 03:31:37;;;;;;;34.92;22.25;;;3.10;99.90;;;;;;4991760;28;20046;-71
2022/03/19 03:34:04;;;;;;;44.85;23.48;;;3.00;99.90;;;;;;4965560;28;20089;-70
2022/03/19 03:36:31;;;;;;;39.28;23.60;;;3.00;99.90;;;;;;4987278;28;20042;-71
2022/03/19 03:38:58;;;;;;;36.20;21.58;;;2.90;99.90;;;;;;4984166;28;20085;-70
2022/03/19 03:41:25;;;;;;;45.60;22.70;;;2.80;99.90;;;;;;5002954;28;20070;-70
2022/03/19 03:43:52;;;;;;;41.42;22.73;;;2.70;99.90;;;;;;4975754;28;20104;-70
2022/03/19 03:46:19;;;;;;;37.25;22.55;;;2.70;99.90;;;;;;4983998;28;20058;-71
2022/03/19 03:48:46;;;;;;;45.22;23.15;;;2.50;99.90;;;;;;4974284;28;20041;-71
2022/03/19 03:51:13;;;;;;;47.28;23.17;;;2.50;99.90;;;;;;5000668;28;20458;-70
2022/03/19 03:53:43;;;;;;;36.50;23.00;;;2.40;99.90;;;;;;5002130;28;20049;-71
2022/03/19 03:56:10;;;;;;;45.40;22.80;;;2.30;99.90;;;;;;5001218;28;20111;-71
2022/03/19 03:58:37;;;;;;;40.75;22.48;;;2.30;99.90;;;;;;5014707;28;20221;-70
2022/03/19 04:01:04;;;;;;;38.17;22.67;;;2.30;99.90;;;;;;4996530;28;20053;-69
2022/03/19 04:03:31;;;;;;;40.60;23.67;;;2.30;99.90;;;;;;4997757;28;20306;-70
2022/03/19 04:05:57;;;;;;;46.63;23.15;;;2.10;99.90;;;;;;4999588;28;20053;-69
2022/03/19 04:08:24;;;;;;;43.35;22.55;;;2.20;99.90;;;;;;4999332;28;20049;-69
2022/03/19 04:10:51;;;;;;;52.10;23.33;;;2.30;99.90;;;;;;4997611;28;20597;-71
2022/03/19 04:13:18;;;;;;;58.03;23.80;;;2.40;99.90;;;;;;4982936;28;20114;-70
2022/03/19 04:15:44;;;;;;;45.22;22.92;;;2.30;99.90;;;;;;4986338;28;20596;-71
2022/03/19 04:18:13;;;;;;;45.45;24.13;;;2.60;99.90;;;;;;4988191;28;20053;-69
2022/03/19 04:20:40;;;;;;;50.03;24.02;;;2.80;99.90;;;;;;4981652;28;20048;-70
2022/03/19 04:23:07;;;;;;;47.28;24.33;;;2.90;99.90;;;;;;4983749;28;20053;-71
2022/03/19 04:25:34;;;;;;;44.22;24.67;;;2.80;99.90;;;;;;5000595;28;20145;-70
2022/03/19 04:28:01;;;;;;;50.97;24.73;;;2.90;99.90;;;;;;4983533;28;20054;-70
2022/03/19 04:30:29;;;;;;;39.35;22.85;;;2.90;99.90;;;;;;4993706;28;20042;-71
2022/03/19 04:32:59;;;;;;;48.10;26.25;;;2.90;99.90;;;;;;4986599;28;20174;-70
2022/03/19 04:38:18;;;;;;;45.30;22.85;;;3.20;99.90;;;;;;4984553;28;20066;-69
2022/03/19 04:40:46;;;;;;;52.25;24.30;;;3.00;99.90;;;;;;5009642;28;20063;-70
2022/03/19 04:43:13;;;;;;;48.80;23.33;;;2.90;99.90;;;;;;4971774;28;20181;-69
2022/03/19 04:45:41;;;;;;;51.58;26.98;;;2.90;99.90;;;;;;4996321;28;20038;-69
2022/03/19 04:48:09;;;;;;;48.03;25.50;;;3.00;99.90;;;;;;4995162;28;20577;-69
2022/03/19 04:50:42;;;;;;;52.60;25.00;;;3.00;99.90;;;;;;4998214;28;20053;-70
2022/03/19 04:53:09;;;;;;;47.80;25.70;;;3.00;99.90;;;;;;5000129;28;20180;-70
2022/03/19 04:55:37;;;;;;;45.53;23.30;;;3.00;99.90;;;;;;4999818;28;20045;-71
2022/03/19 04:58:05;;;;;;;42.75;24.33;;;3.30;99.90;;;;;;5000779;28;20136;-70
2022/03/19 05:00:32;;;;;;;50.20;24.25;;;3.30;99.90;;;;;;4975258;28;20058;-69
2022/03/19 05:03:07;;;;;;;49.15;21.95;;;3.40;99.90;;;;;;4995476;28;20038;-70
2022/03/19 05:05:34;;;;;;;42.22;21.63;;;3.60;99.90;;;;;;4982848;28;20045;-71
2022/03/19 05:08:01;;;;;;;48.60;23.40;;;3.60;99.90;;;;;;4997776;28;20503;-70
2022/03/19 05:13:13;;;;;;;;;;;3.60;99.90;;;;;;4989512;28;20540;-71
2022/03/19 05:15:40;;;;;;;34.97;15.75;;;3.60;99.90;;;;;;4994726;28;19975;-70
2022/03/19 05:18:07;;;;;;;39.42;19.02;;;3.70;99.90;;;;;;4982964;28;20519;-71
2022/03/19 05:20:35;;;;;;;31.83;17.27;;;3.70;99.90;;;;;;4997980;28;20080;-70
2022/03/19 05:23:04;;;;;;;33.42;15.80;;;3.70;99.90;;;;;;5000273;28;20409;-71
2022/03/19 05:25:31;;;;;;;36.78;18.15;;;3.70;99.90;;;;;;5000190;28;20037;-70
2022/03/19 05:27:57;;;;;;;41.33;18.13;;;3.70;99.90;;;;;;4982508;28;20038;-70
2022/03/19 05:30:24;;;;;;;38.38;16.88;;;3.70;99.90;;;;;;4978668;28;20284;-71
2022/03/19 05:32:52;;;;;;;41.72;18.42;;;3.70;99.90;;;;;;4974334;28;20108;-70
2022/03/19 05:35:20;;;;;;;33.42;16.48;;;3.60;99.90;;;;;;4999021;28;20392;-69
2022/03/19 05:37:47;;;;;;;35.05;16.75;;;3.70;99.90;;;;;;5000319;28;20507;-71
2022/03/19 05:40:15;;;;;;;29.67;15.40;;;3.60;99.90;;;;;;5002486;28;20522;-69
2022/03/19 05:42:42;;;;;;;28.00;15.02;;;3.60;99.90;;;;;;5000725;28;20050;-70
2022/03/19 05:45:10;;;;;;;29.83;16.52;;;3.60;99.90;;;;;;4973248;28;20133;-70
2022/03/19 05:47:40;;;;;;;31.30;15.95;;;3.60;99.90;;;;;;4981126;28;20056;-70
2022/03/19 05:50:07;;;;;;;32.28;15.27;;;3.60;99.90;;;;;;4945743;28;20050;-70
2022/03/19 05:52:34;;;;;;;24.98;16.27;;;3.60;99.90;;;;;;4979829;28;20087;-71
2022/03/19 05:55:01;;;;;;;28.83;16.92;;;3.60;99.90;;;;;;4982112;28;20053;-69
2022/03/19 05:57:28;;;;;;;26.27;17.67;;;3.70;99.90;;;;;;4982005;28;20511;-70
2022/03/19 05:59:56;;;;;;;21.63;16.15;;;3.70;99.90;;;;;;4996256;28;20045;-70
2022/03/19 06:02:24;;;;;;;20.65;17.58;;;3.70;99.90;;;;;;4970690;28;20611;-70
2022/03/19 06:04:52;;;;;;;27.63;18.00;;;3.70;99.90;;;;;;4980155;28;20129;-71
2022/03/19 06:07:19;;;;;;;22.05;16.92;;;3.70;99.90;;;;;;4962511;28;20074;-68
2022/03/19 06:09:46;;;;;;;26.35;18.67;;;3.60;99.90;;;;;;4995718;28;20518;-70
2022/03/19 06:12:13;;;;;;;25.98;17.92;;;3.70;99.90;;;;;;4995239;28;20096;-70
2022/03/19 06:14:39;;;;;;;22.42;18.83;;;3.70;99.90;;;;;;4999092;28;20129;-69
2022/03/19 06:17:07;;;;;;;24.23;18.42;;;3.70;99.90;;;;;;4999087;28;20054;-69
2022/03/19 06:19:33;;;;;;;26.05;18.58;;;3.70;99.90;;;;;;4984765;28;20237;-69
2022/03/19 06:22:00;;;;;;;26.63;18.70;;;3.80;99.90;;;;;;5002272;28;20073;-71
2022/03/19 06:24:27;;;;;;;23.83;18.05;;;3.80;99.90;;;;;;4985521;28;20042;-71
2022/03/19 06:26:54;;;;;;;21.52;17.80;;;3.80;99.90;;;;;;5003252;28;20046;-69
2022/03/19 06:29:22;;;;;;;20.00;18.15;;;3.90;99.90;;;;;;5002116;28;20123;-71
2022/03/19 06:31:49;;;;;;;27.90;19.13;;;3.90;99.90;;;;;;4992341;28;20129;-69
2022/03/19 06:34:16;;;;;;;19.98;18.00;;;3.90;99.90;;;;;;5002748;28;20204;-70
2022/03/19 06:39:28;;;;;;;24.73;19.33;;;4.00;99.90;;;;;;4987670;28;20139;-70
2022/03/19 06:41:55;;;;;;;22.73;18.48;;;4.00;99.90;;;;;;4996313;28;20433;-71
2022/03/19 06:44:21;;;;;;;24.70;19.85;;;4.00;99.90;;;;;;5004886;28;20088;-71
2022/03/19 06:46:48;;;;;;;22.58;19.13;;;4.00;99.90;;;;;;5002485;28;20045;-70
2022/03/19 06:49:15;;;;;;;25.88;20.13;;;4.10;99.90;;;;;;4987918;28;20081;-70
2022/03/19 06:51:42;;;;;;;22.42;20.23;;;4.20;99.90;;;;;;4964589;28;20529;-71
2022/03/19 06:54:08;;;;;;;21.75;19.85;;;4.20;99.90;;;;;;4978670;28;20053;-69
2022/03/19 06:56:35;;;;;;;22.88;20.52;;;4.30;99.90;;;;;;5002156;28;20419;-71
2022/03/19 06:59:02;;;;;;;22.05;19.95;;;4.30;99.90;;;;;;5002484;28;20054;-69
2022/03/19 07:01:29;;;;;;;21.13;18.95;;;4.40;99.90;;;;;;4991577;28;20045;-70
2022/03/19 07:03:56;;;;;;;22.30;20.20;;;4.40;99.90;;;;;;5000085;28;20045;-71
2022/03/19 07:06:23;;;;;;;20.88;18.98;;;4.40;99.90;;;;;;5002124;28;20285;-71
2022/03/19 07:09:10;;;;;;;23.73;21.38;;;4.50;99.90;;;;;;4970508;28;20091;-71
2022/03/19 07:11:36;;;;;;;23.98;20.52;;;4.50;99.90;;;;;;4986015;28;20362;-71
2022/03/19 07:14:06;;;;;;;22.33;20.23;;;4.60;99.90;;;;;;5000751;28;20061;-69
2022/03/19 07:16:33;;;;;;;22.52;20.63;;;4.60;99.90;;;;;;4976501;28;20186;-69
2022/03/19 07:19:00;;;;;;;23.15;20.58;;;4.60;99.90;;;;;;4987109;28;20104;-71
2022/03/19 07:21:28;;;;;;;22.67;20.40;;;4.70;99.90;;;;;;4983638;28;20046;-70
2022/03/19 07:23:55;;;;;;;22.50;20.52;;;4.70;99.90;;;;;;5002270;28;20089;-70
2022/03/19 07:26:21;;;;;;;23.33;21.27;;;4.80;99.90;;;;;;5000752;28;20250;-69
2022/03/19 07:28:48;;;;;;;23.52;21.45;;;4.80;99.90;;;;;;5001366;28;20078;-69
2022/03/19 07:31:15;;;;;;;23.30;21.50;;;4.90;99.90;;;;;;4974060;28;20050;-72
2022/03/19 07:33:42;;;;;;;24.20;22.02;;;5.10;99.90;;;;;;4965536;28;20053;-70
2022/03/19 07:36:09;;;;;;;22.98;20.88;;;5.10;99.90;;;;;;4984281;28;20089;-70
2022/03/19 07:38:36;;;;;;;21.90;20.20;;;5.20;99.90;;;;;;5018737;22;20253;-75
2022/03/19 07:43:48;;;;;;;22.80;21.00;;;5.30;99.90;;;;;;5023018;28;20680;-75
2022/03/19 07:46:17;;;;;;;24.15;20.92;;;5.30;99.90;;;;;;5019020;28;20110;-73
2022/03/19 07:48:44;;;;;;;23.05;21.40;;;5.30;99.90;;;;;;4997187;28;20054;-73
2022/03/19 07:51:11;;;;;;;25.05;22.10;;;5.50;99.90;;;;;;4982310;28;20408;-73
2022/03/19 07:53:37;;;;;;;22.90;20.75;;;5.70;99.90;;;;;;4984082;28;20049;-73
2022/03/19 07:56:06;;;;;;;25.63;23.00;;;5.80;99.90;;;;;;4983590;28;20321;-73
2022/03/19 07:58:32;;;;;;;24.17;21.75;;;5.80;99.90;;;;;;4989424;28;20151;-73
2022/03/19 08:00:59;;;;;;;23.02;21.13;;;6.00;99.90;;;;;;4996489;28;20045;-73
2022/03/19 08:03:26;;;;;;;22.83;20.75;;;6.20;99.90;;;;;;4986360;28;20052;-73
2022/03/19 08:05:53;;;;;;;23.27;21.02;;;6.30;99.90;;;;;;4983722;28;20048;-73
2022/03/19 08:08:20;;;;;;;24.35;21.90;;;6.50;99.90;;;;;;4989244;28;20588;-73
2022/03/19 08:10:47;;;;;;;26.65;24.13;;;6.60;99.90;;;;;;5011124;28;20102;-74
2022/03/19 08:13:14;;;;;;;25.00;22.90;;;6.50;99.90;;;;;;5021475;28;20530;-73
2022/03/19 08:15:41;;;;;;;24.02;22.13;;;6.50;99.90;;;;;;5002944;28;20304;-73
2022/03/19 08:18:10;;;;;;;24.35;22.40;;;6.80;99.90;;;;;;5003671;28;20049;-74
2022/03/19 08:20:38;;;;;;;24.48;22.92;;;6.80;99.90;;;;;;5002028;28;20049;-73
2022/03/19 08:23:09;;;;;;;26.02;23.85;;;6.80;99.90;;;;;;5003890;28;20084;-74
2022/03/19 08:25:37;;;;;;;24.35;22.27;;;6.60;99.90;;;;;;4986588;28;20520;-73
2022/03/19 08:28:04;;;;;;;24.33;22.58;;;6.60;99.90;;;;;;5002939;28;20049;-74
2022/03/19 08:30:32;;;;;;;23.60;22.00;;;6.50;99.90;;;;;;4994551;28;20092;-74
2022/03/19 08:32:59;;;;;;;22.83;21.20;;;6.80;99.90;;;;;;5006485;28;20704;-74
2022/03/19 08:35:26;;;;;;;25.17;23.38;;;7.20;99.90;;;;;;4983072;28;20065;-74
2022/03/19 08:40:15;;;;;;;23.52;21.90;;;7.10;99.90;;;;;;4970894;28;20037;-73
2022/03/19 08:40:39;;;;;;;25.83;23.77;;;7.40;99.90;;;;;;5012175;28;20056;-74
2022/03/19 08:43:06;;;;;;;25.20;23.55;;;7.20;99.90;;;;;;4982627;28;20050;-74
2022/03/19 08:45:33;;;;;;;24.65;23.17;;;7.30;99.90;;;;;;4965855;28;20273;-75
2022/03/19 08:48:00;;;;;;;24.35;22.08;;;7.30;99.90;;;;;;5004985;28;20045;-74
2022/03/19 08:50:28;;;;;;;26.98;24.67;;;7.00;99.90;;;;;;5002082;28;20393;-74
2022/03/19 08:52:55;;;;;;;27.88;25.65;;;7.00;99.90;;;;;;5002842;28;20110;-74
2022/03/19 08:55:22;;;;;;;29.67;26.63;;;7.20;99.90;;;;;;5002913;28;20057;-74
2022/03/19 08:57:49;;;;;;;24.80;23.17;;;7.10;99.90;;;;;;5003200;28;20103;-74
2022/03/19 09:00:16;;;;;;;24.80;22.65;;;7.00;99.90;;;;;;4996433;28;20069;-73
2022/03/19 09:02:43;;;;;;;25.60;23.85;;;7.00;99.90;;;;;;4989444;28;20045;-74
2022/03/19 09:05:11;;;;;;;24.33;22.50;;;7.20;99.90;;;;;;4982587;28;20084;-73
2022/03/19 09:07:38;;;;;;;25.38;23.42;;;7.40;99.90;;;;;;4990157;28;20401;-72
2022/03/19 09:10:05;;;;;;;26.88;24.35;;;7.50;99.90;;;;;;4997325;28;20089;-73
2022/03/19 09:12:36;;;;;;;25.95;24.15;;;7.60;99.90;;;;;;4998605;28;20080;-72
2022/03/19 09:15:03;;;;;;;25.23;23.15;;;7.70;99.90;;;;;;5017142;28;20053;-73
2022/03/19 09:17:30;;;;;;;24.60;23.02;;;7.80;99.90;;;;;;4997910;28;20045;-73
2022/03/19 09:19:57;;;;;;;23.05;21.58;;;7.90;99.90;;;;;;4998237;28;20356;-74
2022/03/19 09:22:24;;;;;;;24.95;23.27;;;7.80;99.90;;;;;;4997840;28;20049;-74
2022/03/19 09:24:51;;;;;;;25.30;23.70;;;8.00;99.90;;;;;;5014902;28;20145;-73
2022/03/19 09:27:17;;;;;;;24.98;23.27;;;8.20;99.90;;;;;;5019837;28;20115;-73
2022/03/19 09:29:44;;;;;;;25.80;23.77;;;8.50;99.90;;;;;;4996711;28;20127;-73
2022/03/19 09:32:12;;;;;;;25.88;23.95;;;8.40;99.90;;;;;;4995215;28;20060;-73
2022/03/19 09:34:39;;;;;;;26.35;24.27;;;8.30;99.90;;;;;;5015706;28;20156;-72
2022/03/19 09:37:07;;;;;;;25.27;23.67;;;8.60;99.90;;;;;;5015242;28;20413;-73
2022/03/19 09:39:36;;;;;;;24.10;22.70;;;8.70;99.90;;;;;;4995150;28;20129;-73
2022/03/19 09:42:04;;;;;;;23.40;21.90;;;8.90;99.90;;;;;;5015043;28;20317;-73
2022/03/19 09:44:32;;;;;;;25.02;23.40;;;8.90;99.90;;;;;;4981762;28;20407;-73
2022/03/19 09:46:59;;;;;;;25.10;23.23;;;8.30;99.90;;;;;;5014997;28;20041;-74
2022/03/19 09:49:25;;;;;;;25.42;23.52;;;8.50;99.90;;;;;;5016179;28;20645;-74
2022/03/19 09:51:54;;;;;;;25.45;23.50;;;8.40;99.90;;;;;;4996498;28;20061;-73
2022/03/19 09:54:22;;;;;;;24.65;23.05;;;8.50;99.90;;;;;;5001337;28;20065;-73
2022/03/19 09:56:50;;;;;;;23.33;22.05;;;8.70;99.90;;;;;;5019612;28;20161;-73
2022/03/19 09:59:17;;;;;;;23.55;22.00;;;8.70;99.90;;;;;;5019791;28;20049;-73
2022/03/19 10:01:47;;;;;;;24.25;22.83;;;8.60;99.90;;;;;;4999709;28;20258;-73
2022/03/19 10:04:20;;;;;;;24.80;23.35;;;8.80;99.90;;;;;;5020085;28;20053;-73
2022/03/19 10:09:48;;;;;;;25.63;24.20;;;9.10;99.90;;;;;;5014959;28;20057;-73
2022/03/19 10:12:25;;;;;;;25.30;24.10;;;8.90;99.90;;;;;;4984155;28;20504;-73
2022/03/19 10:14:54;;;;;;;24.67;23.17;;;9.00;99.90;;;;;;5001343;28;20488;-74
2022/03/19 10:17:31;;;;;;;26.58;24.73;;;9.20;99.90;;;;;;5018625;28;20068;-73
2022/03/19 10:20:11;;;;;;;26.98;25.20;;;9.00;99.90;;;;;;5001498;28;20053;-72
2022/03/19 10:22:40;;;;;;;27.13;25.00;;;9.10;99.90;;;;;;5000904;28;20427;-73
2022/03/19 10:25:09;;;;;;;26.15;24.45;;;9.10;99.90;;;;;;5019409;28;20099;-73
2022/03/19 10:27:43;;;;;;;28.85;26.15;;;9.00;99.90;;;;;;5002259;28;20041;-74
2022/03/19 10:30:16;;;;;;;26.13;24.30;;;9.20;99.90;;;;;;5017508;28;20141;-75
2022/03/19 10:32:51;;;;;;;26.70;25.02;;;9.60;99.90;;;;;;5006250;28;20574;-74
2022/03/19 10:35:25;;;;;;;28.48;26.48;;;9.70;99.90;;;;;;5011394;28;20200;-74
2022/03/19 10:37:52;;;;;;;27.03;25.17;;;9.80;99.90;;;;;;5027694;28;20045;-74
2022/03/19 10:40:20;;;;;;;28.98;27.23;;;9.30;99.90;;;;;;5022434;28;20322;-74
2022/03/19 10:42:50;;;;;;;27.52;25.88;;;9.40;99.90;;;;;;5026292;28;20099;-74
2022/03/19 10:45:22;;;;;;;26.63;24.73;;;9.60;99.90;;;;;;5021400;28;20045;-74
2022/03/19 10:47:49;;;;;;;27.65;25.52;;;9.80;99.90;;;;;;4981622;28;20081;-74
2022/03/19 10:50:22;;;;;;;27.90;26.10;;;9.70;99.90;;;;;;5019996;28;20084;-73
2022/03/19 10:52:50;;;;;;;29.30;27.40;;;9.40;99.90;;;;;;4997752;28;20215;-75
2022/03/19 10:55:19;;;;;;;29.02;27.23;;;9.40;99.90;;;;;;5015218;28;20274;-74
2022/03/19 10:57:46;;;;;;;30.83;28.65;;;9.30;99.90;;;;;;5002736;28;20049;-73
2022/03/19 11:00:16;;;;;;;31.42;28.52;;;9.10;99.90;;;;;;5004298;28;20045;-73
2022/03/19 11:02:45;;;;;;;32.72;30.33;;;9.30;99.90;;;;;;5018811;28;20084;-72
2022/03/19 11:05:15;;;;;;;30.08;27.63;;;9.20;99.90;;;;;;4996528;28;20128;-72
2022/03/19 11:07:44;;;;;;;31.25;28.95;;;9.50;99.90;;;;;;5008749;28;20046;-72
2022/03/19 11:10:11;;;;;;;30.60;28.48;;;9.40;99.90;;;;;;4993918;28;20132;-72
2022/03/19 11:12:52;;;;;;;32.60;29.83;;;9.60;99.90;;;;;;5001956;28;20045;-72
2022/03/19 11:15:19;;;;;;;29.13;26.92;;;9.60;99.90;;;;;;4996980;28;20468;-73
2022/03/19 11:17:50;;;;;;;29.08;27.10;;;9.50;99.90;;;;;;5005875;28;20049;-72
2022/03/19 11:20:17;;;;;;;30.95;28.77;;;9.00;99.90;;;;;;5020723;28;20484;-73
2022/03/19 11:22:50;;;;;;;30.85;28.58;;;9.20;99.90;;;;;;4988622;28;20606;-74
2022/03/19 11:25:30;;;;;;;30.70;28.42;;;9.50;99.90;;;;;;4987995;28;20041;-74
2022/03/19 11:28:08;;;;;;;28.48;26.50;;;9.80;99.90;;;;;;4997634;28;20037;-73
2022/03/19 11:30:38;;;;;;;28.90;26.60;;;9.60;99.90;;;;;;4987609;28;20313;-73
2022/03/19 11:33:08;;;;;;;29.10;27.27;;;9.60;99.90;;;;;;4977261;28;20053;-74
2022/03/19 11:35:41;;;;;;;27.60;25.77;;;9.60;99.90;;;;;;5002823;28;20627;-72
2022/03/19 11:38:20;;;;;;;30.88;28.40;;;9.40;99.90;;;;;;5003529;28;20057;-72
2022/03/19 11:40:54;;;;;;;27.02;25.23;;;9.10;99.90;;;;;;4992309;28;20249;-76
2022/03/19 11:43:24;;;;;;;26.75;24.63;;;9.30;99.90;;;;;;4986341;28;20298;-76
2022/03/19 11:46:00;;;;;;;27.42;25.23;;;9.60;99.90;;;;;;5002167;28;20049;-79
2022/03/19 11:48:48;;;;;;;26.80;25.10;;;10.00;99.90;;;;;;4977771;28;20041;-76
2022/03/19 11:51:35;;;;;;;27.13;25.23;;;10.10;99.90;;;;;;5022923;28;20103;-76
2022/03/19 11:54:16;;;;;;;26.05;24.25;;;9.70;99.90;;;;;;5007233;28;20057;-76
2022/03/19 11:56:42;;;;;;;26.30;23.92;;;9.90;99.90;;;;;;5023838;28;20620;-77
2022/03/19 11:59:15;;;;;;;26.42;24.42;;;9.90;99.90;;;;;;5044551;28;20307;-76
2022/03/19 12:02:01;;;;;;;27.30;25.17;;;9.70;99.90;;;;;;5012990;28;20413;-77
2022/03/19 12:04:51;;;;;;;23.88;22.48;;;9.60;99.90;;;;;;4987146;28;20129;-77
2022/03/19 12:07:40;;;;;;;26.13;24.42;;;9.90;99.90;;;;;;4988709;28;20054;-77
2022/03/19 12:10:24;;;;;;;25.25;23.30;;;10.20;99.90;;;;;;4995942;28;20061;-76
2022/03/19 12:12:51;;;;;;;26.20;24.42;;;9.90;99.90;;;;;;5025011;28;20060;-76
2022/03/19 12:15:33;;;;;;;25.95;24.38;;;9.60;99.90;;;;;;5005186;28;20261;-77
2022/03/19 12:18:29;;;;;;;25.88;24.23;;;9.40;99.90;;;;;;5006312;28;20414;-76
2022/03/19 12:21:02;;;;;;;24.65;23.17;;;9.70;99.90;;;;;;4995778;28;20422;-76
2022/03/19 12:23:49;;;;;;;25.60;24.15;;;9.90;99.90;;;;;;5004484;28;20045;-77
2022/03/19 12:26:18;;;;;;;25.83;23.80;;;10.00;99.90;;;;;;5004538;28;20076;-77
2022/03/19 12:28:59;;;;;;;25.50;23.83;;;10.10;99.90;;;;;;5004542;28;20053;-77
2022/03/19 12:31:31;;;;;;;24.05;22.60;;;9.90;99.90;;;;;;5020471;28;20500;-77
2022/03/19 12:33:59;;;;;;;24.42;22.98;;;9.50;99.90;;;;;;5021896;28;20329;-76
2022/03/19 12:36:26;;;;;;;24.42;22.92;;;9.80;99.90;;;;;;5000441;28;20049;-76
2022/03/19 12:38:53;;;;;;;25.90;24.10;;;9.60;99.90;;;;;;5001081;28;20080;-76
2022/03/19 12:41:24;;;;;;;24.05;22.42;;;9.90;99.90;;;;;;4984508;28;20175;-77
2022/03/19 12:43:54;;;;;;;26.42;24.33;;;9.80;99.90;;;;;;5003685;28;20048;-76
2022/03/19 12:46:23;;;;;;;24.20;22.13;;;10.00;99.90;;;;;;4986574;28;20335;-76
2022/03/19 12:48:50;;;;;;;23.52;22.20;;;10.10;99.90;;;;;;4992336;28;20041;-76
2022/03/19 12:51:25;;;;;;;24.98;23.40;;;9.70;99.90;;;;;;5000199;28;20298;-76
2022/03/19 12:53:52;;;;;;;25.60;23.73;;;9.70;99.90;;;;;;4983789;28;20062;-76
2022/03/19 12:56:25;;;;;;;20.90;19.38;;;9.80;99.90;;;;;;4983579;28;20146;-76
2022/03/19 12:58:54;;;;;;;22.35;20.83;;;9.50;99.90;;;;;;5002903;28;20057;-77
2022/03/19 13:01:23;;;;;;;21.33;20.02;;;9.20;99.90;;;;;;5011899;28;20049;-77
2022/03/19 13:03:54;;;;;;;26.73;25.23;;;9.30;99.90;;;;;;4969766;28;20104;-77